createdAt,value
2023-03-04T00:00:33.472Z,27.50
2023-03-04T00:03:00.448Z,17.30
2023-03-04T00:05:27.334Z,18.80
2023-03-04T00:07:54.199Z,17.80
2023-03-04T00:20:17.855Z,17.00
2023-03-04T00:22:44.813Z,12.90
2023-03-04T00:25:14.610Z,11.20
2023-03-04T00:27:42.559Z,15.50
2023-03-04T00:30:10.182Z,15.90
2023-03-04T00:32:37.512Z,16.50
2023-03-04T00:35:06.606Z,14.40
2023-03-04T00:37:38.107Z,14.20
2023-03-04T00:56:30.610Z,15.30
2023-03-04T00:58:57.651Z,14.90
2023-03-04T01:01:25.767Z,17.50
2023-03-04T01:03:54.243Z,17.30
2023-03-04T01:06:22.900Z,19.70
2023-03-04T01:08:49.921Z,16.00
2023-03-04T01:11:17.232Z,16.90
2023-03-04T01:13:46.908Z,17.60
2023-03-04T01:16:14.067Z,17.90
2023-03-04T01:18:41.305Z,15.60
2023-03-04T01:21:09.291Z,17.60
2023-03-04T01:23:36.210Z,11.60
2023-03-04T01:26:03.514Z,16.40
2023-03-04T01:28:35.157Z,14.50
2023-03-04T01:31:03.841Z,16.40
2023-03-04T01:33:31.211Z,15.40
2023-03-04T01:35:58.288Z,20.20
2023-03-04T01:38:26.363Z,12.80
2023-03-04T01:51:21.597Z,17.40
2023-03-04T01:53:52.935Z,19.80
2023-03-04T01:56:39.575Z,20.90
2023-03-04T01:59:29.921Z,18.30
2023-03-04T02:01:59.890Z,21.50
2023-03-04T02:04:32.350Z,22.50
2023-03-04T02:07:01.710Z,21.20
2023-03-04T02:09:30.452Z,16.70
2023-03-04T02:11:57.774Z,17.50
2023-03-04T02:14:25.537Z,17.20
2023-03-04T02:16:56.017Z,18.00
2023-03-04T02:19:23.527Z,23.30
2023-03-04T02:21:51.294Z,23.10
2023-03-04T02:24:37.664Z,19.20
2023-03-04T02:43:14.252Z,29.40
2023-03-04T02:45:49.471Z,23.80
2023-03-04T02:48:19.626Z,21.00
2023-03-04T02:50:52.443Z,18.90
2023-03-04T02:53:20.957Z,32.70
2023-03-04T02:55:48.648Z,31.40
2023-03-04T02:58:18.090Z,22.10
2023-03-04T03:00:47.446Z,24.80
2023-03-04T03:03:19.912Z,22.30
2023-03-04T03:05:47.126Z,25.00
2023-03-04T03:08:14.443Z,25.70
2023-03-04T03:10:42.025Z,25.90
2023-03-04T03:13:09.119Z,26.40
2023-03-04T03:15:41.688Z,21.20
2023-03-04T03:18:10.458Z,33.40
2023-03-04T03:20:37.745Z,25.50
2023-03-04T03:23:06.887Z,27.20
2023-03-04T03:41:21.006Z,33.70
2023-03-04T03:43:48.311Z,19.60
2023-03-04T03:46:15.234Z,23.40
2023-03-04T03:48:43.544Z,22.90
2023-03-04T03:51:10.479Z,19.90
2023-03-04T03:53:37.766Z,22.50
2023-03-04T03:56:05.103Z,22.30
2023-03-04T03:58:32.158Z,25.70
2023-03-04T04:00:59.070Z,22.80
2023-03-04T04:03:27.496Z,23.10
2023-03-04T04:05:54.396Z,28.10
2023-03-04T04:08:24.646Z,26.70
2023-03-04T04:10:52.704Z,26.30
2023-03-04T04:13:19.928Z,24.10
2023-03-04T04:15:53.662Z,29.40
2023-03-04T04:18:24.728Z,20.60
2023-03-04T04:20:52.248Z,22.80
2023-03-04T04:23:20.252Z,21.00
2023-03-04T04:25:47.194Z,24.00
2023-03-04T04:28:14.424Z,22.30
2023-03-04T04:30:42.125Z,29.10
2023-03-04T04:33:12.052Z,23.50
2023-03-04T04:35:39.530Z,21.00
2023-03-04T04:38:07.693Z,22.20
2023-03-04T04:40:34.907Z,17.90
2023-03-04T04:43:02.749Z,21.40
2023-03-04T04:45:30.131Z,20.50
2023-03-04T04:47:57.142Z,24.50
2023-03-04T04:50:25.438Z,18.20
2023-03-04T04:52:52.468Z,27.00
2023-03-04T05:09:36.449Z,22.10
2023-03-04T05:12:03.662Z,24.50
2023-03-04T05:14:35.064Z,26.50
2023-03-04T05:17:02.381Z,19.90
2023-03-04T05:19:29.429Z,27.30
2023-03-04T05:21:58.990Z,17.40
2023-03-04T05:24:25.882Z,24.30
2023-03-04T05:32:10.966Z,24.70
2023-03-04T05:34:37.851Z,27.90
2023-03-04T05:37:04.849Z,23.00
2023-03-04T05:39:33.297Z,20.50
2023-03-04T05:43:04.162Z,20.30
2023-03-04T05:45:33.151Z,20.20
2023-03-04T05:48:00.335Z,19.90
2023-03-04T05:50:27.270Z,22.50
2023-03-04T05:52:55.174Z,24.60
2023-03-04T05:56:00.393Z,27.10
2023-03-04T05:58:27.357Z,22.90
2023-03-04T06:00:59.822Z,26.10
2023-03-04T06:03:27.135Z,28.50
2023-03-04T06:05:55.786Z,34.40
2023-03-04T06:08:23.515Z,24.90
2023-03-04T06:10:54.154Z,27.40
2023-03-04T06:13:25.486Z,29.60
2023-03-04T06:15:57.901Z,28.30
2023-03-04T06:18:26.465Z,33.20
2023-03-04T06:21:00.889Z,30.30
2023-03-04T06:23:30.008Z,29.00
2023-03-04T06:25:58.905Z,30.20
2023-03-04T06:28:26.258Z,31.50
2023-03-04T06:30:55.238Z,26.40
2023-03-04T06:33:25.262Z,25.00
2023-03-04T06:35:56.841Z,28.40
2023-03-04T06:38:25.149Z,24.30
2023-03-04T06:40:56.746Z,25.10
2023-03-04T06:43:24.144Z,33.00
2023-03-04T06:45:51.213Z,32.00
2023-03-04T06:48:18.391Z,37.90
2023-03-04T06:50:45.342Z,28.80
2023-03-04T06:53:12.262Z,27.90
2023-03-04T07:04:47.326Z,29.80
2023-03-04T07:07:14.259Z,27.10
2023-03-04T07:10:21.559Z,29.50
2023-03-04T07:12:48.492Z,24.70
2023-03-04T07:15:15.757Z,27.30
2023-03-04T07:17:43.797Z,30.50
2023-03-04T07:20:11.307Z,24.70
2023-03-04T07:22:38.341Z,18.60
2023-03-04T07:33:44.769Z,22.30
2023-03-04T07:36:14.282Z,31.60
2023-03-04T07:38:45.939Z,27.50
2023-03-04T07:43:40.780Z,21.60
2023-03-04T07:46:08.359Z,25.40
2023-03-04T08:08:55.873Z,21.50
2023-03-04T08:37:44.785Z,13.60
2023-03-04T08:37:46.302Z,14.60
2023-03-04T08:40:38.930Z,13.70
2023-03-04T08:52:17.879Z,14.50
2023-03-04T08:52:27.882Z,10.30
2023-03-04T08:58:47.325Z,14.90
2023-03-04T09:10:02.628Z,14.30
2023-03-04T09:18:52.183Z,16.40
2023-03-04T10:06:09.156Z,11.90
2023-03-04T10:08:48.908Z,23.10
2023-03-04T10:11:33.900Z,9.80
2023-03-04T10:14:20.734Z,15.20
2023-03-04T10:16:57.423Z,13.90
2023-03-04T10:19:43.630Z,10.50
2023-03-04T10:22:19.145Z,12.10
2023-03-04T10:24:47.580Z,13.80
2023-03-04T10:27:19.070Z,10.80
2023-03-04T10:29:48.962Z,8.50
2023-03-04T10:32:20.968Z,20.70
2023-03-04T10:34:48.000Z,9.50
2023-03-04T10:37:15.050Z,14.60
2023-03-04T10:39:46.068Z,10.90
2023-03-04T10:42:16.152Z,12.10
2023-03-04T10:45:00.007Z,7.20
2023-03-04T10:47:32.726Z,9.70
2023-03-04T10:50:02.683Z,11.40
2023-03-04T10:52:47.294Z,8.80
2023-03-04T10:55:21.748Z,11.40
2023-03-04T10:58:19.870Z,7.60
2023-03-04T11:01:05.376Z,8.60
2023-03-04T11:03:39.700Z,7.70
2023-03-04T11:06:21.823Z,16.80
2023-03-04T11:08:59.142Z,12.60
2023-03-04T11:11:42.555Z,16.80
2023-03-04T11:14:48.688Z,9.70
2023-03-04T11:17:18.051Z,13.10
2023-03-04T11:19:53.447Z,12.80
2023-03-04T11:22:23.141Z,12.30
2023-03-04T11:25:40.354Z,13.20
2023-03-04T11:31:52.969Z,12.20
2023-03-04T11:34:27.308Z,10.80
2023-03-04T11:37:04.708Z,13.90
2023-03-04T11:45:02.619Z,13.00
2023-03-04T11:47:38.828Z,11.20
2023-03-04T11:50:19.800Z,13.90
2023-03-04T11:53:24.477Z,14.20
2023-03-04T12:01:33.858Z,15.00
2023-03-04T12:04:10.209Z,21.00
2023-03-04T12:06:40.368Z,19.50
2023-03-04T12:09:13.524Z,18.90
2023-03-04T12:12:08.159Z,17.20
2023-03-04T12:15:04.814Z,20.60
2023-03-04T12:17:41.369Z,16.40
2023-03-04T12:20:25.482Z,20.90
2023-03-04T12:26:04.538Z,90.70
2023-03-04T12:29:03.811Z,84.90
2023-03-04T12:31:41.339Z,25.80
2023-03-04T12:34:11.524Z,22.90
2023-03-04T12:40:38.124Z,22.90
2023-03-04T12:43:44.640Z,26.30
2023-03-04T12:46:27.037Z,19.10
2023-03-04T12:49:49.796Z,17.60
2023-03-04T12:52:45.690Z,16.30
2023-03-04T12:55:52.905Z,17.70
2023-03-04T12:58:50.551Z,14.00
2023-03-04T13:02:07.310Z,16.60
2023-03-04T13:06:45.059Z,20.50
2023-03-04T13:09:28.091Z,26.20
2023-03-04T13:12:20.975Z,21.20
2023-03-04T13:15:05.371Z,15.70
2023-03-04T13:17:51.583Z,25.70
2023-03-04T13:20:35.075Z,21.50
2023-03-04T13:23:08.292Z,23.50
2023-03-04T13:25:37.492Z,22.20
2023-03-04T13:28:12.696Z,17.80
2023-03-04T13:31:11.265Z,21.70
2023-03-04T13:33:38.313Z,23.00
2023-03-04T13:36:25.212Z,20.40
2023-03-04T13:39:15.012Z,19.30
2023-03-04T13:41:53.242Z,23.20
2023-03-04T13:44:56.899Z,22.00
2023-03-04T13:47:41.392Z,20.40
2023-03-04T13:50:29.504Z,16.90
2023-03-04T13:53:23.267Z,18.60
2023-03-04T13:56:13.909Z,18.00
2023-03-04T13:58:48.190Z,24.60
2023-03-04T14:01:33.513Z,24.40
2023-03-04T14:04:12.443Z,22.10
2023-03-04T14:06:47.070Z,20.90
2023-03-04T14:09:16.102Z,19.10
2023-03-04T14:11:44.366Z,24.30
2023-03-04T14:14:15.363Z,20.10
2023-03-04T14:16:51.552Z,22.70
2023-03-04T14:19:32.886Z,23.70
2023-03-04T14:22:00.572Z,21.00
2023-03-04T14:24:30.359Z,22.10
2023-03-04T14:27:11.225Z,21.70
2023-03-04T14:29:38.650Z,16.80
2023-03-04T14:32:06.350Z,21.60
2023-03-04T14:34:38.961Z,17.20
2023-03-04T14:37:32.658Z,13.50
2023-03-04T14:40:01.239Z,10.70
2023-03-04T14:42:40.102Z,12.70
2023-03-04T14:45:13.891Z,14.00
2023-03-04T14:47:47.996Z,13.90
2023-03-04T14:50:20.042Z,15.90
2023-03-04T14:53:14.886Z,12.00
2023-03-04T14:56:05.994Z,14.30
2023-03-04T14:58:52.660Z,15.70
2023-03-04T15:01:23.112Z,17.70
2023-03-04T15:04:04.161Z,16.10
2023-03-04T15:06:47.383Z,17.90
2023-03-04T15:09:22.409Z,10.10
2023-03-04T15:11:55.754Z,15.30
2023-03-04T15:14:46.820Z,11.70
2023-03-04T15:17:24.368Z,13.90
2023-03-04T15:20:07.467Z,12.60
2023-03-04T15:22:48.609Z,8.30
2023-03-04T15:25:20.034Z,16.10
2023-03-04T15:27:53.530Z,13.00
2023-03-04T15:30:23.571Z,11.40
2023-03-04T15:32:53.998Z,13.30
2023-03-04T15:35:22.571Z,16.90
2023-03-04T15:37:54.193Z,14.50
2023-03-04T15:40:35.086Z,13.70
2023-03-04T15:43:04.275Z,17.80
2023-03-04T15:45:37.792Z,14.70
2023-03-04T15:48:11.295Z,16.10
2023-03-04T15:53:22.805Z,17.70
2023-03-04T15:55:51.273Z,15.70
2023-03-04T15:58:20.240Z,20.40
2023-03-04T16:00:47.228Z,20.30
2023-03-04T16:03:19.960Z,14.60
2023-03-04T16:05:50.188Z,17.10
2023-03-04T16:08:24.614Z,15.60
2023-03-04T16:10:53.334Z,24.90
2023-03-04T16:13:22.872Z,20.10
2023-03-04T16:15:51.811Z,18.80
2023-03-04T16:18:19.036Z,17.50
2023-03-04T16:20:48.245Z,21.00
2023-03-04T16:23:20.144Z,15.40
2023-03-04T16:28:16.344Z,13.30
2023-03-04T16:30:43.284Z,18.90
2023-03-04T16:33:11.069Z,15.80
2023-03-04T16:35:40.798Z,15.30
2023-03-04T16:38:19.502Z,13.30
2023-03-04T16:40:53.120Z,15.70
2023-03-04T16:43:21.050Z,15.40
2023-03-04T16:45:48.285Z,21.00
2023-03-04T16:48:15.953Z,15.40
2023-03-04T16:50:44.108Z,17.10
2023-03-04T16:53:32.068Z,18.70
2023-03-04T16:56:11.331Z,16.70
2023-03-04T16:58:40.975Z,16.40
2023-03-04T17:01:19.000Z,17.40
2023-03-04T17:03:47.205Z,17.40
2023-03-04T17:06:15.700Z,17.00
2023-03-04T17:08:42.776Z,16.70
2023-03-04T17:11:18.067Z,22.10
2023-03-04T17:13:47.279Z,15.70
2023-03-04T17:16:14.775Z,12.10
2023-03-04T17:18:43.852Z,14.70
2023-03-04T17:21:14.679Z,15.10
2023-03-04T17:23:41.838Z,32.00
2023-03-04T17:28:42.373Z,41.20
2023-03-04T17:31:14.510Z,50.10
2023-03-04T17:33:46.965Z,70.20
2023-03-04T17:36:15.587Z,39.20
2023-03-04T17:38:43.099Z,38.90
2023-03-04T17:50:35.934Z,175.90
2023-03-04T17:53:02.991Z,137.80
2023-03-04T17:55:30.023Z,202.60
2023-03-04T17:57:57.848Z,109.60
2023-03-04T18:00:25.020Z,69.80
2023-03-04T18:02:52.011Z,49.90
2023-03-04T18:05:19.211Z,51.70
2023-03-04T18:07:46.166Z,50.30
2023-03-04T18:10:13.713Z,38.90
2023-03-04T18:12:41.056Z,37.40
2023-03-04T18:15:09.591Z,29.30
2023-03-04T18:17:36.899Z,50.60
2023-03-04T18:20:04.380Z,57.20
2023-03-04T18:22:34.948Z,76.20
2023-03-04T18:25:01.830Z,134.00
2023-03-04T18:27:29.788Z,84.00
2023-03-04T18:29:58.170Z,36.70
2023-03-04T18:32:25.327Z,41.50
2023-03-04T18:34:54.661Z,58.20
2023-03-04T18:37:21.749Z,59.70
2023-03-04T18:39:51.224Z,63.30
2023-03-04T18:42:19.392Z,70.20
2023-03-04T18:44:46.510Z,57.70
2023-03-04T18:47:13.771Z,55.30
2023-03-04T18:49:43.226Z,38.00
2023-03-04T18:52:11.985Z,27.60
2023-03-04T18:54:39.669Z,54.30
2023-03-04T18:57:10.757Z,73.60
2023-03-04T18:59:47.230Z,42.20
2023-03-04T19:02:29.966Z,41.90
2023-03-04T19:05:02.574Z,56.30
2023-03-04T19:07:29.658Z,25.10
2023-03-04T19:09:56.552Z,27.50
2023-03-04T19:12:23.508Z,21.90
2023-03-04T19:14:50.790Z,16.20
2023-03-04T19:17:18.277Z,19.30
2023-03-04T19:19:45.357Z,21.30
2023-03-04T19:22:12.910Z,25.20
2023-03-04T19:24:40.042Z,32.50
2023-03-04T19:27:08.934Z,38.40
2023-03-04T19:29:38.503Z,38.80
2023-03-04T19:32:09.016Z,22.70
2023-03-04T19:34:36.839Z,28.30
2023-03-04T19:37:03.706Z,25.50
2023-03-04T19:39:31.693Z,22.50
2023-03-04T19:41:58.570Z,25.30
2023-03-04T19:44:25.593Z,33.10
2023-03-04T19:46:52.610Z,26.30
2023-03-04T19:49:23.785Z,23.00
2023-03-04T19:51:51.134Z,26.40
2023-03-04T19:54:18.253Z,29.90
2023-03-04T19:56:45.428Z,25.90
2023-03-04T19:59:12.662Z,24.80
2023-03-04T20:01:41.154Z,30.80
2023-03-04T20:04:11.283Z,34.50
2023-03-04T20:06:41.812Z,36.30
2023-03-04T20:09:10.746Z,21.30
2023-03-04T20:11:50.745Z,28.50
2023-03-04T20:14:27.820Z,26.90
2023-03-04T20:17:00.097Z,32.90
2023-03-04T20:19:27.165Z,29.20
2023-03-04T20:21:56.340Z,32.40
2023-03-04T20:24:24.169Z,26.00
2023-03-04T20:26:53.344Z,28.10
2023-03-04T20:29:20.350Z,29.30
2023-03-04T20:31:48.044Z,39.40
2023-03-04T20:34:15.570Z,43.20
2023-03-04T20:36:42.530Z,39.30
2023-03-04T20:39:27.091Z,57.20
2023-03-04T20:41:56.901Z,50.50
2023-03-04T20:44:24.122Z,62.60
2023-03-04T20:46:51.742Z,56.90
2023-03-04T20:49:23.390Z,55.70
2023-03-04T20:51:59.787Z,92.80
2023-03-04T20:54:26.694Z,51.70
2023-03-04T20:56:53.707Z,47.30
2023-03-04T20:59:22.232Z,44.20
2023-03-04T21:01:49.466Z,35.20
2023-03-04T21:04:17.429Z,30.70
2023-03-04T21:06:46.728Z,34.10
2023-03-04T21:09:16.913Z,31.20
2023-03-04T21:11:45.498Z,35.90
2023-03-04T21:14:23.821Z,36.50
2023-03-04T21:16:58.583Z,35.40
2023-03-04T21:19:28.858Z,47.30
2023-03-04T21:22:01.809Z,44.70
2023-03-04T21:24:32.886Z,31.70
2023-03-04T21:27:01.136Z,29.10
2023-03-04T21:29:29.676Z,30.30
2023-03-04T21:32:22.433Z,38.60
2023-03-04T21:34:53.544Z,37.20
2023-03-04T21:37:23.169Z,38.80
2023-03-04T21:39:52.561Z,32.80
2023-03-04T21:42:20.579Z,43.10
2023-03-04T21:44:50.559Z,37.40
2023-03-04T21:47:19.918Z,41.00
2023-03-04T21:49:47.316Z,41.20
2023-03-04T21:52:14.369Z,78.30
2023-03-04T21:54:41.538Z,99.00
2023-03-04T21:57:13.169Z,88.00
2023-03-04T21:59:40.646Z,108.60
2023-03-04T22:02:15.365Z,77.80
2023-03-04T22:04:44.690Z,95.60
2023-03-04T22:07:12.989Z,101.60
2023-03-04T22:09:41.729Z,70.00
2023-03-04T22:12:09.311Z,86.30
2023-03-04T22:14:36.573Z,93.60
2023-03-04T22:17:03.655Z,86.70
2023-03-04T22:19:32.152Z,63.00
2023-03-04T22:21:59.780Z,60.50
2023-03-04T22:24:27.030Z,55.10
2023-03-04T22:26:56.250Z,58.50
2023-03-04T22:29:23.170Z,77.80
2023-03-04T22:31:50.250Z,73.40
2023-03-04T22:34:19.418Z,74.20
2023-03-04T22:36:48.246Z,54.70
2023-03-04T22:39:22.333Z,71.80
2023-03-04T22:41:49.489Z,55.40
2023-03-04T22:44:16.721Z,73.00
2023-03-04T22:46:44.179Z,57.80
2023-03-04T22:49:12.717Z,60.10
2023-03-04T22:51:42.713Z,63.90
2023-03-04T22:54:17.608Z,66.10
2023-03-04T22:56:45.163Z,85.00
2023-03-04T22:59:12.810Z,78.70
2023-03-04T23:01:44.016Z,76.40
2023-03-04T23:04:11.344Z,84.70
2023-03-04T23:06:38.617Z,66.20
2023-03-04T23:09:12.426Z,68.10
2023-03-04T23:11:42.026Z,77.00
2023-03-04T23:14:11.261Z,69.30
2023-03-04T23:16:46.769Z,64.80
2023-03-04T23:19:16.978Z,72.80
2023-03-04T23:21:44.259Z,87.60
2023-03-04T23:24:12.510Z,96.10
2023-03-04T23:26:41.002Z,105.40
2023-03-04T23:29:11.402Z,69.10
2023-03-04T23:31:38.623Z,68.70
2023-03-04T23:34:07.434Z,68.10
2023-03-04T23:36:36.819Z,69.00
2023-03-04T23:39:05.647Z,64.20
2023-03-04T23:41:35.299Z,70.90
2023-03-04T23:44:05.580Z,58.10
2023-03-04T23:46:34.013Z,65.60
2023-03-04T23:49:01.287Z,61.70
2023-03-04T23:51:29.451Z,55.80
2023-03-04T23:53:56.468Z,56.10
